createdAt,value
2023-01-08T00:06:15.114Z,69.16
2023-01-08T00:16:18.692Z,69.41
2023-01-08T00:26:22.906Z,69.69
2023-01-08T00:36:25.444Z,69.77
2023-01-08T00:46:29.230Z,69.29
2023-01-08T00:56:31.740Z,69.55
2023-01-08T01:06:35.536Z,71.01
2023-01-08T01:16:39.943Z,71.00
2023-01-08T01:26:43.908Z,70.81
2023-01-08T01:36:46.774Z,70.84
2023-01-08T01:46:50.929Z,71.16
2023-01-08T01:56:53.477Z,70.87
2023-01-08T02:07:01.365Z,70.89
2023-01-08T02:17:07.598Z,70.83
2023-01-08T02:27:12.594Z,70.25
2023-01-08T02:37:15.143Z,70.10
2023-01-08T02:47:25.098Z,70.41
2023-01-08T02:57:28.748Z,70.02
2023-01-08T03:07:33.276Z,69.72
2023-01-08T03:17:37.303Z,69.55
2023-01-08T03:27:44.040Z,70.25
2023-01-08T03:37:47.904Z,70.28
2023-01-08T03:47:52.219Z,70.84
2023-01-08T03:57:54.659Z,71.00
2023-01-08T04:07:58.587Z,71.00
2023-01-08T04:18:01.079Z,71.34
2023-01-08T04:28:05.074Z,72.11
2023-01-08T04:38:07.521Z,72.50
2023-01-08T04:48:11.376Z,72.04
2023-01-08T04:58:13.858Z,72.73
2023-01-08T05:08:17.725Z,74.45
2023-01-08T05:18:20.158Z,74.89
2023-01-08T05:28:23.989Z,76.05
2023-01-08T05:38:26.535Z,77.33
2023-01-08T05:48:31.203Z,77.88
2023-01-08T05:58:33.682Z,78.31
2023-01-08T06:08:37.704Z,79.36
2023-01-08T06:18:40.280Z,81.03
2023-01-08T06:28:44.131Z,81.61
2023-01-08T06:38:46.595Z,81.96
2023-01-08T06:48:50.412Z,84.00
2023-01-08T06:58:52.895Z,84.57
2023-01-08T07:08:57.611Z,85.33
2023-01-08T07:19:00.104Z,85.61
2023-01-08T07:29:03.963Z,85.76
2023-01-08T07:39:06.471Z,85.83
2023-01-08T07:49:10.495Z,86.68
2023-01-08T07:59:12.962Z,86.03
2023-01-08T08:09:16.783Z,85.84
2023-01-08T08:19:19.274Z,85.71
2023-01-08T08:29:23.360Z,85.52
2023-01-08T08:39:26.011Z,86.50
2023-01-08T08:49:29.880Z,86.11
2023-01-08T08:59:32.586Z,85.58
2023-01-08T09:09:36.406Z,85.57
2023-01-08T09:19:39.587Z,85.08
2023-01-08T09:29:43.436Z,84.89
2023-01-08T09:39:51.002Z,84.60
2023-01-08T09:50:00.262Z,83.42
2023-01-08T10:00:02.858Z,82.59
2023-01-08T10:10:07.481Z,81.24
2023-01-08T10:20:12.170Z,79.41
2023-01-08T10:30:20.374Z,78.48
2023-01-08T10:40:24.800Z,78.54
2023-01-08T10:50:30.282Z,78.00
2023-01-08T11:00:34.371Z,77.03
2023-01-08T11:10:38.411Z,75.80
2023-01-08T11:20:41.937Z,75.37
2023-01-08T11:30:50.082Z,75.11
2023-01-08T11:40:54.263Z,74.33
2023-01-08T11:51:07.349Z,73.21
2023-01-08T12:01:19.469Z,73.44
2023-01-08T12:11:26.127Z,73.54
2023-01-08T12:21:32.572Z,73.45
2023-01-08T12:32:01.510Z,72.78
2023-01-08T12:42:08.786Z,72.56
2023-01-08T12:52:17.191Z,72.26
2023-01-08T13:02:25.880Z,71.34
2023-01-08T13:12:34.330Z,70.49
2023-01-08T13:22:37.984Z,70.95
2023-01-08T13:32:45.695Z,69.33
2023-01-08T13:42:50.034Z,69.39
2023-01-08T13:52:58.039Z,68.75
2023-01-08T14:03:00.622Z,67.30
2023-01-08T14:13:06.992Z,67.95
2023-01-08T14:23:11.474Z,68.50
2023-01-08T14:33:15.551Z,69.15
2023-01-08T14:43:19.232Z,69.79
2023-01-08T14:53:25.131Z,69.83
2023-01-08T15:03:31.403Z,70.18
2023-01-08T15:13:37.979Z,71.91
2023-01-08T15:23:41.734Z,71.62
2023-01-08T15:33:45.750Z,71.92
2023-01-08T15:43:50.076Z,72.06
2023-01-08T15:53:55.316Z,72.21
2023-01-08T16:03:57.841Z,71.46
2023-01-08T16:14:01.657Z,71.40
2023-01-08T16:24:04.230Z,71.28
2023-01-08T16:34:08.066Z,70.80
2023-01-08T16:44:17.200Z,71.81
2023-01-08T16:54:21.580Z,71.66
2023-01-08T17:04:25.932Z,71.97
2023-01-08T17:14:29.872Z,71.45
2023-01-08T17:24:32.449Z,71.50
2023-01-08T17:34:36.378Z,71.00
2023-01-08T17:44:38.900Z,71.33
2023-01-08T17:54:42.781Z,72.09
2023-01-08T18:04:45.913Z,72.32
2023-01-08T18:14:49.734Z,72.43
2023-01-08T18:24:52.241Z,72.57
2023-01-08T18:34:56.564Z,72.68
2023-01-08T18:44:59.097Z,73.16
2023-01-08T18:55:02.925Z,72.10
2023-01-08T19:05:05.662Z,72.28
2023-01-08T19:15:10.061Z,73.42
2023-01-08T19:25:14.819Z,74.67
2023-01-08T19:35:18.698Z,76.14
2023-01-08T19:45:21.284Z,77.99
2023-01-08T19:55:25.282Z,78.51
2023-01-08T20:05:27.823Z,78.90
2023-01-08T20:15:32.429Z,79.98
2023-01-08T20:25:35.273Z,80.35
2023-01-08T20:35:39.218Z,82.19
2023-01-08T20:45:42.254Z,82.35
2023-01-08T20:55:46.401Z,83.00
2023-01-08T21:05:48.935Z,81.88
2023-01-08T21:15:52.843Z,82.65
2023-01-08T21:25:55.976Z,83.59
2023-01-08T21:36:03.260Z,84.27
2023-01-08T21:46:05.840Z,85.42
2023-01-08T21:56:09.785Z,85.93
2023-01-08T22:06:12.573Z,85.56
2023-01-08T22:16:16.525Z,86.48
2023-01-08T22:26:20.441Z,88.35
2023-01-08T22:36:24.628Z,88.31
2023-01-08T22:46:27.419Z,88.35
2023-01-08T22:56:31.504Z,88.19
2023-01-08T23:06:34.376Z,87.29
2023-01-08T23:16:39.144Z,87.35
2023-01-08T23:26:42.335Z,87.48
2023-01-08T23:36:46.544Z,87.06
2023-01-08T23:46:49.135Z,86.73
2023-01-08T23:56:53.492Z,85.64
